Time;durP1;ratioP1;P1;durP2;ratioP2;P2;SDS_P1;SDS_P2;PMS_P1;PMS_P2;Temp;Humidity;BMP_temperature;BMP_pressure;BME280_temperature;BME280_humidity;BME280_pressure;Samples;Min_cycle;Max_cycle;Signal;HPM_P1;HPM_P2
2023/10/22 00:01:54;;;;;;;3.92;1.90;;;25.70;99.90;;;;;;5072313;22;20053;-51
2023/10/22 00:04:20;;;;;;;4.43;1.98;;;25.70;99.90;;;;;;5053090;28;20516;-51
2023/10/22 00:06:47;;;;;;;3.50;2.22;;;25.70;99.90;;;;;;5053198;28;20021;-51
2023/10/22 00:09:13;;;;;;;3.35;1.63;;;25.70;99.90;;;;;;5052820;28;20021;-50
2023/10/22 00:11:39;;;;;;;4.00;2.42;;;25.70;99.90;;;;;;5052820;28;20139;-51
2023/10/22 00:14:05;;;;;;;3.72;2.17;;;25.70;99.90;;;;;;5035040;28;20029;-50
2023/10/22 00:16:30;;;;;;;5.07;2.20;;;25.70;99.90;;;;;;5052900;28;20085;-50
2023/10/22 00:18:56;;;;;;;3.65;2.08;;;25.70;99.90;;;;;;5052866;28;20017;-50
2023/10/22 00:21:22;;;;;;;2.78;1.83;;;25.70;99.90;;;;;;5052609;28;20109;-50
2023/10/22 00:23:48;;;;;;;3.20;1.90;;;25.60;99.90;;;;;;5052673;28;20028;-51
2023/10/22 00:26:14;;;;;;;3.28;1.85;;;25.60;99.90;;;;;;5052582;28;20044;-51
2023/10/22 00:28:40;;;;;;;2.63;1.70;;;25.60;99.90;;;;;;5052620;28;20063;-51
2023/10/22 00:31:05;;;;;;;2.72;1.70;;;25.60;99.90;;;;;;5052589;28;20370;-52
2023/10/22 00:33:31;;;;;;;2.97;2.03;;;25.60;99.90;;;;;;5052406;28;20032;-50
2023/10/22 00:36:01;;;;;;;3.83;1.92;;;25.60;99.90;;;;;;5052730;28;20075;-51
2023/10/22 00:38:26;;;;;;;2.95;1.85;;;25.60;99.90;;;;;;5034957;28;20052;-50
2023/10/22 00:40:52;;;;;;;3.97;2.13;;;25.60;99.90;;;;;;5052398;28;20499;-50
2023/10/22 00:43:18;;;;;;;3.17;1.67;;;25.50;99.90;;;;;;5034457;28;20025;-51
2023/10/22 00:45:45;;;;;;;3.47;1.98;;;25.50;99.90;;;;;;5052220;28;20072;-50
2023/10/22 00:48:11;;;;;;;3.97;2.00;;;25.50;99.90;;;;;;5052396;28;20526;-51
2023/10/22 00:50:41;;;;;;;3.35;1.55;;;25.50;99.90;;;;;;5052250;28;20021;-51
2023/10/22 00:53:09;;;;;;;2.78;1.58;;;25.50;99.90;;;;;;5018280;28;20108;-51
2023/10/22 00:55:39;;;;;;;2.75;1.52;;;25.50;99.90;;;;;;5052353;28;20096;-51
2023/10/22 00:58:06;;;;;;;5.25;1.80;;;25.50;99.90;;;;;;5017941;28;20029;-51
2023/10/22 01:00:34;;;;;;;3.30;1.45;;;25.50;99.90;;;;;;5052840;28;20407;-51
2023/10/22 01:03:01;;;;;;;2.55;1.42;;;25.40;99.90;;;;;;5052417;28;20107;-51
2023/10/22 01:05:28;;;;;;;3.50;1.77;;;25.40;99.90;;;;;;5052293;28;20056;-51
2023/10/22 01:07:54;;;;;;;2.80;1.70;;;25.40;99.90;;;;;;5054273;28;20029;-51
2023/10/22 01:10:20;;;;;;;3.50;1.58;;;25.40;99.90;;;;;;5056140;28;20029;-50
2023/10/22 01:12:46;;;;;;;4.45;1.55;;;25.40;99.90;;;;;;5056233;28;20159;-50
2023/10/22 01:15:12;;;;;;;2.83;1.40;;;25.40;99.90;;;;;;5056146;28;20009;-51
2023/10/22 01:17:38;;;;;;;2.78;1.83;;;25.40;99.90;;;;;;5056126;28;20032;-50
2023/10/22 01:20:05;;;;;;;2.53;1.40;;;25.40;99.90;;;;;;5056112;28;20079;-51
2023/10/22 01:22:33;;;;;;;3.07;1.20;;;25.40;99.90;;;;;;5038569;28;20043;-52
2023/10/22 01:24:59;;;;;;;4.85;1.52;;;25.40;99.90;;;;;;5056119;28;20754;-51
2023/10/22 01:27:25;;;;;;;2.92;1.50;;;25.40;99.90;;;;;;5055869;28;20025;-51
2023/10/22 01:29:50;;;;;;;4.75;1.52;;;25.30;99.90;;;;;;5056025;28;20083;-51
2023/10/22 01:32:16;;;;;;;2.70;1.70;;;25.30;99.90;;;;;;5055858;28;20056;-51
2023/10/22 01:34:42;;;;;;;2.28;1.80;;;25.30;99.90;;;;;;5055695;28;20535;-51
2023/10/22 01:37:08;;;;;;;3.55;1.40;;;25.30;99.90;;;;;;5056034;28;20100;-51
2023/10/22 01:39:34;;;;;;;2.55;1.35;;;25.30;99.90;;;;;;5055859;28;20108;-51
2023/10/22 01:42:00;;;;;;;2.10;1.30;;;25.30;99.90;;;;;;5038155;28;20028;-50
2023/10/22 01:44:25;;;;;;;2.97;1.50;;;25.30;99.90;;;;;;5055615;28;20032;-51
2023/10/22 01:46:52;;;;;;;2.00;1.40;;;25.30;99.90;;;;;;5055488;28;20427;-51
2023/10/22 01:49:18;;;;;;;3.13;1.35;;;25.30;99.90;;;;;;5055572;28;20059;-52
2023/10/22 01:51:43;;;;;;;2.92;1.30;;;25.20;99.90;;;;;;5037517;28;20374;-51
2023/10/22 01:54:09;;;;;;;3.00;1.40;;;25.30;99.90;;;;;;5037596;28;20049;-52
2023/10/22 01:56:35;;;;;;;3.28;1.40;;;25.20;99.90;;;;;;5055634;28;20025;-51
2023/10/22 01:59:01;;;;;;;2.10;1.20;;;25.20;99.90;;;;;;5037642;28;20032;-51
2023/10/22 02:01:27;;;;;;;2.25;1.13;;;25.20;99.90;;;;;;5067106;23;20064;-46
2023/10/22 02:03:53;;;;;;;2.15;0.90;;;25.20;99.90;;;;;;5055068;28;20033;-46
2023/10/22 02:06:19;;;;;;;1.67;1.15;;;25.20;99.90;;;;;;5055212;28;20028;-46
2023/10/22 02:08:46;;;;;;;2.25;1.30;;;25.20;99.90;;;;;;5055175;28;20035;-46
2023/10/22 02:11:12;;;;;;;2.63;1.10;;;25.20;99.90;;;;;;5055119;28;20052;-46
2023/10/22 02:13:38;;;;;;;2.63;1.40;;;25.20;99.90;;;;;;5037118;28;20028;-46
2023/10/22 02:16:04;;;;;;;2.97;1.40;;;25.20;99.90;;;;;;5037323;28;20029;-46
2023/10/22 02:18:29;;;;;;;2.78;1.20;;;25.20;99.90;;;;;;5054076;28;20021;-46
2023/10/22 02:21:00;;;;;;;3.15;1.25;;;25.10;99.90;;;;;;5054778;28;20488;-46
2023/10/22 02:23:26;;;;;;;3.58;1.63;;;25.20;99.90;;;;;;5054769;28;20040;-47
2023/10/22 02:25:52;;;;;;;2.15;1.13;;;25.10;99.90;;;;;;5054893;28;20041;-47
2023/10/22 02:28:18;;;;;;;1.95;1.17;;;25.20;99.90;;;;;;5054764;28;20059;-47
2023/10/22 02:30:47;;;;;;;2.47;1.08;;;25.10;99.90;;;;;;5054640;28;20055;-46
2023/10/22 02:33:13;;;;;;;3.47;1.10;;;25.10;99.90;;;;;;5054689;28;20017;-45
2023/10/22 02:35:43;;;;;;;1.20;0.90;;;25.10;99.90;;;;;;5054666;28;20544;-46
2023/10/22 02:38:17;;;;;;;2.47;1.00;;;25.10;99.90;;;;;;5054562;28;20477;-46
2023/10/22 02:40:44;;;;;;;4.00;1.67;;;25.10;99.90;;;;;;5054578;28;20024;-46
2023/10/22 02:43:13;;;;;;;;;;;25.10;99.90;;;;;;5054889;28;20017;-46
2023/10/22 02:45:51;;;;;;;3.08;1.48;;;25.10;99.90;;;;;;5054593;28;19928;-46
2023/10/22 02:48:17;;;;;;;2.40;1.30;;;25.10;99.90;;;;;;5054377;28;20108;-46
2023/10/22 02:50:43;;;;;;;2.92;1.27;;;25.10;99.90;;;;;;5054283;28;20137;-46
2023/10/22 02:53:09;;;;;;;3.50;1.30;;;25.10;99.90;;;;;;5054424;28;20025;-45
2023/10/22 02:55:35;;;;;;;4.50;1.98;;;25.00;99.90;;;;;;5054617;28;20025;-46
2023/10/22 02:58:01;;;;;;;4.47;1.85;;;25.10;99.90;;;;;;5054122;28;20389;-46
2023/10/22 03:00:27;;;;;;;3.80;1.77;;;25.00;99.90;;;;;;5054406;28;20032;-46
2023/10/22 03:02:53;;;;;;;1.40;1.10;;;25.10;99.90;;;;;;5054016;28;20374;-46
2023/10/22 03:05:20;;;;;;;2.70;1.17;;;25.00;99.90;;;;;;5053960;28;20069;-46
2023/10/22 03:07:46;;;;;;;4.75;1.75;;;25.00;99.90;;;;;;5054056;28;20060;-46
2023/10/22 03:10:12;;;;;;;3.15;1.50;;;25.00;99.90;;;;;;5053643;28;20031;-46
2023/10/22 03:12:38;;;;;;;2.65;1.55;;;25.00;99.90;;;;;;5054177;28;20036;-47
2023/10/22 03:15:04;;;;;;;1.83;1.20;;;25.00;99.90;;;;;;5054144;28;20024;-46
2023/10/22 03:17:30;;;;;;;2.22;1.08;;;25.00;99.90;;;;;;5035866;28;20040;-47
2023/10/22 03:19:56;;;;;;;3.22;1.50;;;25.00;99.90;;;;;;5053841;28;20114;-46
2023/10/22 03:22:23;;;;;;;3.58;1.95;;;25.00;99.90;;;;;;5053804;28;20020;-46
2023/10/22 03:24:52;;;;;;;3.83;2.00;;;25.00;99.90;;;;;;5054226;28;20029;-47
2023/10/22 03:27:18;;;;;;;4.20;2.03;;;25.00;99.90;;;;;;5053533;28;20258;-46
2023/10/22 03:29:46;;;;;;;5.30;2.10;;;25.00;99.90;;;;;;5053549;28;20396;-47
2023/10/22 03:32:12;;;;;;;3.38;1.45;;;25.00;99.90;;;;;;5053385;28;20090;-46
2023/10/22 03:34:38;;;;;;;4.00;1.75;;;25.00;99.90;;;;;;5053666;28;20029;-46
2023/10/22 03:37:08;;;;;;;4.40;1.80;;;25.00;99.90;;;;;;5053498;28;20033;-47
2023/10/22 03:39:36;;;;;;;3.28;1.63;;;24.90;99.90;;;;;;5053323;28;20103;-46
2023/10/22 03:42:02;;;;;;;2.20;1.38;;;24.90;99.90;;;;;;5053395;28;20107;-46
2023/10/22 03:44:29;;;;;;;6.05;2.33;;;24.90;99.90;;;;;;5053315;28;20155;-45
2023/10/22 03:46:55;;;;;;;6.75;2.05;;;24.90;99.90;;;;;;5053267;28;20024;-47
2023/10/22 03:49:21;;;;;;;5.57;2.00;;;24.90;99.90;;;;;;5053203;28;20033;-46
2023/10/22 03:51:46;;;;;;;3.63;1.92;;;24.90;99.90;;;;;;5053090;28;20400;-46
2023/10/22 03:54:12;;;;;;;5.03;2.05;;;24.90;99.90;;;;;;5053101;28;20017;-45
2023/10/22 03:56:38;;;;;;;3.80;1.90;;;24.90;99.90;;;;;;5053327;28;20067;-47
2023/10/22 03:59:04;;;;;;;2.92;2.00;;;24.90;99.90;;;;;;5052883;28;20048;-46
2023/10/22 04:01:30;;;;;;;4.13;2.15;;;24.90;99.90;;;;;;5053261;28;20115;-46
2023/10/22 04:03:55;;;;;;;4.70;1.98;;;24.90;99.90;;;;;;5052921;28;20032;-47
2023/10/22 04:06:21;;;;;;;3.33;1.90;;;24.90;99.90;;;;;;5052952;28;20384;-46
2023/10/22 04:08:47;;;;;;;4.45;1.83;;;24.80;99.90;;;;;;5052919;28;20099;-46
2023/10/22 04:11:13;;;;;;;6.50;2.05;;;24.80;99.90;;;;;;5034783;28;20413;-46
2023/10/22 04:13:38;;;;;;;3.28;2.03;;;24.80;99.90;;;;;;5052932;28;20032;-46
2023/10/22 04:16:04;;;;;;;3.85;2.03;;;24.80;99.90;;;;;;5052621;28;20067;-46
2023/10/22 04:18:30;;;;;;;3.05;1.65;;;24.80;99.90;;;;;;5052622;28;20492;-46
2023/10/22 04:20:56;;;;;;;3.58;2.28;;;24.80;99.90;;;;;;5052690;28;20021;-46
2023/10/22 04:23:22;;;;;;;4.63;2.35;;;24.80;99.90;;;;;;5031551;28;20536;-46
2023/10/22 04:25:48;;;;;;;3.40;2.28;;;24.80;99.90;;;;;;5050841;28;20035;-46
2023/10/22 04:28:15;;;;;;;4.32;2.10;;;24.80;99.90;;;;;;5052656;28;20025;-46
2023/10/22 04:30:43;;;;;;;3.90;2.38;;;24.80;99.90;;;;;;5034942;28;20029;-46
2023/10/22 04:33:09;;;;;;;4.80;2.50;;;24.80;99.90;;;;;;5052787;28;20079;-45
2023/10/22 04:35:35;;;;;;;3.47;2.15;;;24.80;99.90;;;;;;5052408;28;20104;-45
2023/10/22 04:38:02;;;;;;;4.15;2.25;;;24.70;99.90;;;;;;5034543;28;20029;-45
2023/10/22 04:40:32;;;;;;;5.55;2.30;;;24.70;99.90;;;;;;5052494;28;20058;-46
2023/10/22 04:42:58;;;;;;;3.63;1.98;;;24.70;99.90;;;;;;5051771;28;20036;-46
2023/10/22 04:45:24;;;;;;;3.90;2.10;;;24.70;99.90;;;;;;5052328;28;20108;-46
2023/10/22 04:47:50;;;;;;;4.47;2.55;;;24.70;99.90;;;;;;5052292;28;20070;-46
2023/10/22 04:50:16;;;;;;;3.65;2.08;;;24.70;99.90;;;;;;5052281;28;20021;-46
2023/10/22 04:52:41;;;;;;;4.03;2.15;;;24.70;99.90;;;;;;5034579;28;20029;-46
2023/10/22 04:55:11;;;;;;;5.65;2.55;;;24.70;99.90;;;;;;5052224;28;20033;-47
2023/10/22 04:57:36;;;;;;;3.83;2.17;;;24.70;99.90;;;;;;5052095;28;20474;-46
2023/10/22 05:00:07;;;;;;;3.65;2.28;;;24.70;99.90;;;;;;5034226;28;20020;-46
2023/10/22 05:02:33;;;;;;;5.28;2.63;;;24.70;99.90;;;;;;5052071;28;20040;-46
2023/10/22 05:04:59;;;;;;;5.03;2.13;;;24.70;99.90;;;;;;5052074;28;20090;-45
2023/10/22 05:07:24;;;;;;;4.93;2.35;;;24.60;99.90;;;;;;5052047;28;20025;-46
2023/10/22 05:09:50;;;;;;;4.43;2.83;;;24.70;99.90;;;;;;5052127;28;20093;-46
2023/10/22 05:12:16;;;;;;;4.13;2.20;;;24.60;99.90;;;;;;5051828;28;20032;-46
2023/10/22 05:14:42;;;;;;;5.40;2.42;;;24.60;99.90;;;;;;5052209;28;20473;-46
2023/10/22 05:17:08;;;;;;;4.20;2.42;;;24.60;99.90;;;;;;5051974;28;20476;-45
2023/10/22 05:19:34;;;;;;;6.20;2.63;;;24.60;99.90;;;;;;5052387;28;20032;-45
2023/10/22 05:22:00;;;;;;;5.10;2.58;;;24.60;99.90;;;;;;5052121;28;20023;-46
2023/10/22 05:24:26;;;;;;;5.25;2.80;;;24.50;99.90;;;;;;5051924;28;20100;-46
2023/10/22 05:26:53;;;;;;;5.90;2.47;;;24.60;99.90;;;;;;5051792;28;20021;-46
2023/10/22 05:29:19;;;;;;;4.03;2.33;;;24.60;99.90;;;;;;5051996;28;20039;-45
2023/10/22 05:31:44;;;;;;;4.32;2.80;;;24.50;99.90;;;;;;5052079;28;20037;-46
2023/10/22 05:34:10;;;;;;;4.00;2.58;;;24.50;99.90;;;;;;5033681;28;20021;-46
2023/10/22 05:36:36;;;;;;;4.47;2.50;;;24.50;99.90;;;;;;5051694;28;20112;-46
2023/10/22 05:39:02;;;;;;;4.03;2.47;;;24.50;99.90;;;;;;5051553;28;20120;-46
2023/10/22 05:41:28;;;;;;;4.70;2.65;;;24.50;99.90;;;;;;5051653;28;20040;-47
2023/10/22 05:43:56;;;;;;;4.65;2.33;;;24.50;99.90;;;;;;5051614;28;20017;-46
2023/10/22 05:46:23;;;;;;;;;;;24.50;99.90;;;;;;5052174;28;20025;-46
2023/10/22 05:48:49;;;;;;;5.60;2.60;;;24.50;99.90;;;;;;5051750;28;19912;-45
2023/10/22 05:51:15;;;;;;;3.65;2.28;;;24.50;99.90;;;;;;5051766;28;20037;-46
2023/10/22 05:53:40;;;;;;;4.38;2.38;;;24.50;99.90;;;;;;5035410;28;20025;-45
2023/10/22 05:56:06;;;;;;;4.45;2.70;;;24.50;99.90;;;;;;5055284;28;20095;-45
2023/10/22 05:58:32;;;;;;;3.78;2.30;;;24.50;99.90;;;;;;5055288;28;20029;-46
2023/10/22 06:00:58;;;;;;;5.65;2.65;;;24.40;99.90;;;;;;5055180;28;20064;-46
2023/10/22 06:03:24;;;;;;;10.18;2.78;;;24.40;99.90;;;;;;5055313;28;20055;-46
2023/10/22 06:05:49;;;;;;;6.18;3.05;;;24.40;99.90;;;;;;5055145;28;20039;-46
2023/10/22 06:08:15;;;;;;;4.10;2.22;;;24.40;99.90;;;;;;5055253;28;20040;-47
2023/10/22 06:10:42;;;;;;;4.68;2.50;;;24.40;99.90;;;;;;5054945;28;20558;-46
2023/10/22 06:13:09;;;;;;;5.47;2.55;;;24.40;99.90;;;;;;5037232;28;20473;-46
2023/10/22 06:15:39;;;;;;;5.85;2.85;;;24.40;99.90;;;;;;5037118;28;20538;-46
2023/10/22 06:18:06;;;;;;;4.50;2.63;;;24.40;99.90;;;;;;5054874;28;20041;-46
2023/10/22 06:20:33;;;;;;;5.47;2.28;;;24.40;99.90;;;;;;5054933;28;20052;-45
2023/10/22 06:22:59;;;;;;;4.00;2.47;;;24.30;99.90;;;;;;5036927;28;20056;-46
2023/10/22 06:25:25;;;;;;;3.92;2.25;;;24.30;99.90;;;;;;5054871;28;20032;-45
2023/10/22 06:27:55;;;;;;;5.00;2.22;;;24.40;99.90;;;;;;5054726;28;20032;-45
2023/10/22 06:30:25;;;;;;;5.45;2.30;;;24.30;99.90;;;;;;5054744;28;20500;-45
2023/10/22 06:32:51;;;;;;;5.72;3.55;;;24.30;99.90;;;;;;5054720;28;20481;-46
2023/10/22 06:35:19;;;;;;;5.27;2.23;;;24.30;99.90;;;;;;5054836;28;20017;-46
2023/10/22 06:37:50;;;;;;;3.03;2.38;;;24.30;99.90;;;;;;5036980;28;20029;-46
2023/10/22 06:40:17;;;;;;;4.38;2.60;;;24.30;99.90;;;;;;5054839;28;20021;-46
2023/10/22 06:42:43;;;;;;;3.83;2.05;;;24.30;99.90;;;;;;5054492;28;20049;-45
2023/10/22 06:45:09;;;;;;;5.85;2.17;;;24.30;99.90;;;;;;5054589;28;20053;-45
2023/10/22 06:47:39;;;;;;;4.60;2.75;;;24.30;99.90;;;;;;5054490;28;20590;-46
2023/10/22 06:50:06;;;;;;;3.38;1.83;;;24.30;99.90;;;;;;5054537;28;20024;-45
2023/10/22 06:52:32;;;;;;;7.32;2.90;;;24.30;99.90;;;;;;5054318;28;20029;-46
2023/10/22 06:54:58;;;;;;;3.92;2.28;;;24.30;99.90;;;;;;5054257;28;20060;-45
2023/10/22 06:57:23;;;;;;;4.80;2.40;;;24.30;99.90;;;;;;5054194;28;20025;-45
2023/10/22 06:59:52;;;;;;;4.53;2.53;;;24.30;99.90;;;;;;5054246;28;20025;-46
2023/10/22 07:02:18;;;;;;;5.25;2.90;;;24.30;99.90;;;;;;5054201;28;20064;-46
2023/10/22 07:04:44;;;;;;;3.70;2.42;;;24.30;99.90;;;;;;5053445;28;20470;-46
2023/10/22 07:07:10;;;;;;;4.57;2.25;;;24.30;99.90;;;;;;5054127;28;20021;-46
2023/10/22 07:09:37;;;;;;;3.78;2.45;;;24.30;99.90;;;;;;5053994;28;20052;-46
2023/10/22 07:12:03;;;;;;;4.78;2.10;;;24.30;99.90;;;;;;5036084;28;20036;-46
2023/10/22 07:14:29;;;;;;;4.03;2.23;;;24.30;99.90;;;;;;5054036;28;20033;-46
2023/10/22 07:16:55;;;;;;;3.72;2.63;;;24.30;99.90;;;;;;5053973;28;20406;-45
2023/10/22 07:19:21;;;;;;;3.53;2.65;;;24.30;99.90;;;;;;5054017;28;20025;-46
2023/10/22 07:21:47;;;;;;;4.93;2.33;;;24.30;99.90;;;;;;5054123;28;20211;-46
2023/10/22 07:24:12;;;;;;;3.10;1.92;;;24.40;99.90;;;;;;5019564;28;20025;-46
2023/10/22 07:26:38;;;;;;;5.18;2.50;;;24.40;99.90;;;;;;5053867;28;20036;-45
2023/10/22 07:29:04;;;;;;;4.18;2.10;;;24.40;99.90;;;;;;5053686;28;20041;-46
2023/10/22 07:31:30;;;;;;;5.22;2.35;;;24.40;99.90;;;;;;5035868;28;20040;-45
2023/10/22 07:33:56;;;;;;;5.10;2.70;;;24.40;99.90;;;;;;5053455;28;20029;-45
2023/10/22 07:36:21;;;;;;;3.78;2.20;;;24.40;99.90;;;;;;5053864;28;20112;-45
2023/10/22 07:38:51;;;;;;;3.22;2.15;;;24.40;99.90;;;;;;5053659;28;20509;-45
2023/10/22 07:41:18;;;;;;;3.67;2.17;;;24.40;99.90;;;;;;5053496;28;20462;-45
2023/10/22 07:43:44;;;;;;;3.83;2.05;;;24.50;99.90;;;;;;5053430;28;20028;-46
2023/10/22 07:46:10;;;;;;;4.15;2.05;;;24.50;99.90;;;;;;5053236;28;20389;-45
2023/10/22 07:48:37;;;;;;;3.17;2.17;;;24.50;99.90;;;;;;5053284;28;20021;-45
2023/10/22 07:51:13;;;;;;;4.32;2.17;;;24.50;99.90;;;;;;5045037;28;20079;-45
2023/10/22 07:53:39;;;;;;;3.40;2.13;;;24.40;99.90;;;;;;5053068;28;20036;-45
2023/10/22 07:56:06;;;;;;;5.75;2.67;;;24.40;99.90;;;;;;5053156;28;20124;-46
2023/10/22 07:58:32;;;;;;;4.95;2.25;;;24.50;99.90;;;;;;5053036;28;20028;-45
2023/10/22 08:00:59;;;;;;;2.67;2.03;;;24.50;99.90;;;;;;5034508;28;20163;-45
2023/10/22 08:03:29;;;;;;;3.90;2.10;;;24.40;99.90;;;;;;5018849;28;20468;-45
2023/10/22 08:05:55;;;;;;;3.80;1.77;;;24.50;99.90;;;;;;5053108;28;20033;-45
2023/10/22 08:08:21;;;;;;;5.25;1.92;;;24.50;99.90;;;;;;5053213;28;20021;-45
2023/10/22 08:10:47;;;;;;;3.05;2.25;;;24.50;99.90;;;;;;5052731;28;20017;-46
2023/10/22 08:13:13;;;;;;;2.60;2.05;;;24.50;99.90;;;;;;5034918;28;20033;-46
2023/10/22 08:15:39;;;;;;;5.53;2.38;;;24.50;99.90;;;;;;5052785;28;20021;-46
2023/10/22 08:18:05;;;;;;;3.25;1.95;;;24.50;99.90;;;;;;5051973;28;20036;-45
2023/10/22 08:20:35;;;;;;;3.30;2.22;;;24.50;99.90;;;;;;5034941;28;20481;-46
2023/10/22 08:23:01;;;;;;;2.47;1.92;;;24.50;99.90;;;;;;5052678;28;20035;-46
2023/10/22 08:25:27;;;;;;;3.70;2.22;;;24.50;99.90;;;;;;5034800;28;20107;-46
2023/10/22 08:27:54;;;;;;;4.28;2.63;;;24.50;99.90;;;;;;5052823;28;20033;-45
2023/10/22 08:30:20;;;;;;;2.85;2.05;;;24.50;99.90;;;;;;5052384;28;20028;-45
2023/10/22 08:32:47;;;;;;;3.55;2.17;;;24.50;99.90;;;;;;5052534;28;20170;-45
2023/10/22 08:35:13;;;;;;;4.25;2.60;;;24.60;99.90;;;;;;5052467;28;20013;-45
2023/10/22 08:37:39;;;;;;;4.13;2.20;;;24.60;99.90;;;;;;5052401;28;20028;-46
2023/10/22 08:40:08;;;;;;;2.97;1.90;;;24.70;99.90;;;;;;5052381;28;20017;-45
2023/10/22 08:42:35;;;;;;;3.45;1.80;;;24.60;99.90;;;;;;5052288;28;20036;-46
2023/10/22 08:45:02;;;;;;;6.20;2.50;;;24.70;99.90;;;;;;5052355;28;20029;-46
2023/10/22 08:47:29;;;;;;;3.53;2.00;;;24.70;99.90;;;;;;5034376;28;20039;-46
2023/10/22 08:49:56;;;;;;;3.75;1.95;;;24.70;99.90;;;;;;5052667;28;20104;-47
2023/10/22 08:52:22;;;;;;;2.72;2.10;;;24.80;99.90;;;;;;5052435;28;20037;-46
2023/10/22 08:54:48;;;;;;;3.75;1.83;;;24.80;99.90;;;;;;5052290;28;20105;-46
2023/10/22 08:57:20;;;;;;;4.00;1.88;;;24.90;99.90;;;;;;5052220;28;20392;-47
2023/10/22 08:59:47;;;;;;;4.38;2.38;;;24.90;99.90;;;;;;5052192;28;20047;-46
2023/10/22 09:02:15;;;;;;;4.95;2.00;;;24.90;99.90;;;;;;5052039;28;20045;-46
2023/10/22 09:04:41;;;;;;;4.45;2.40;;;25.00;99.90;;;;;;5034731;28;20024;-46
2023/10/22 09:07:07;;;;;;;2.95;2.30;;;25.00;99.90;;;;;;5052109;28;20032;-46
2023/10/22 09:09:38;;;;;;;3.25;2.13;;;25.00;99.90;;;;;;5052056;28;20087;-47
2023/10/22 09:12:13;;;;;;;3.88;2.20;;;25.00;99.90;;;;;;5043928;28;20057;-46
2023/10/22 09:14:42;;;;;;;3.65;2.03;;;25.00;99.90;;;;;;5052004;28;20017;-47
2023/10/22 09:17:18;;;;;;;2.90;1.95;;;25.00;99.90;;;;;;5052029;28;20029;-46
2023/10/22 09:19:49;;;;;;;5.53;2.10;;;25.00;99.90;;;;;;5051993;28;20025;-47
2023/10/22 09:22:23;;;;;;;5.40;2.60;;;25.00;99.90;;;;;;5030677;28;20026;-47
2023/10/22 09:24:58;;;;;;;3.15;2.05;;;25.00;99.90;;;;;;5050183;28;20033;-47
2023/10/22 09:27:30;;;;;;;3.60;1.70;;;25.00;99.90;;;;;;5052128;28;20477;-47
2023/10/22 09:30:01;;;;;;;3.38;2.13;;;25.00;99.90;;;;;;5056001;28;20039;-47
2023/10/22 09:32:27;;;;;;;2.28;1.88;;;25.00;99.90;;;;;;5038076;28;20068;-47
2023/10/22 09:34:53;;;;;;;3.33;1.90;;;25.10;99.90;;;;;;5055935;28;20430;-47
2023/10/22 09:37:19;;;;;;;3.83;1.90;;;25.10;99.90;;;;;;5055723;28;20047;-46
2023/10/22 09:39:45;;;;;;;4.43;2.13;;;25.10;99.90;;;;;;5055649;28;20113;-46
2023/10/22 09:42:17;;;;;;;4.38;2.05;;;25.10;99.90;;;;;;5055733;28;20096;-46
2023/10/22 09:44:44;;;;;;;3.17;1.67;;;25.10;99.90;;;;;;5055610;28;20481;-46
2023/10/22 09:47:17;;;;;;;3.67;2.20;;;25.10;99.90;;;;;;5055640;28;20017;-46
2023/10/22 09:49:49;;;;;;;4.22;2.00;;;25.20;99.90;;;;;;5055533;28;20028;-46
2023/10/22 09:52:16;;;;;;;4.20;2.00;;;25.10;99.90;;;;;;5055574;28;20029;-45
2023/10/22 09:54:42;;;;;;;4.57;1.92;;;25.10;99.90;;;;;;5055602;28;20028;-45
2023/10/22 09:57:13;;;;;;;4.38;2.30;;;25.10;99.90;;;;;;5055498;28;20029;-46
2023/10/22 09:59:40;;;;;;;3.17;2.08;;;25.10;99.90;;;;;;5055378;28;20027;-46
2023/10/22 10:02:15;;;;;;;2.45;1.65;;;25.10;99.90;;;;;;5055155;28;20158;-46
2023/10/22 10:04:42;;;;;;;4.32;1.80;;;25.10;99.90;;;;;;5055325;28;20142;-45
2023/10/22 10:07:08;;;;;;;2.20;1.85;;;25.10;99.90;;;;;;5055302;28;20547;-45
2023/10/22 10:09:35;;;;;;;3.80;1.90;;;25.10;99.90;;;;;;5055245;28;20033;-46
2023/10/22 10:12:04;;;;;;;4.90;2.05;;;25.10;99.90;;;;;;5054883;28;20033;-45
2023/10/22 10:14:38;;;;;;;3.13;1.75;;;25.10;99.90;;;;;;5037294;28;20029;-47
2023/10/22 10:17:04;;;;;;;3.85;2.03;;;25.10;99.90;;;;;;5055113;28;20104;-48
2023/10/22 10:19:30;;;;;;;3.60;1.80;;;25.00;99.90;;;;;;5055176;28;20025;-46
2023/10/22 10:21:56;;;;;;;2.88;1.67;;;25.10;99.90;;;;;;5055049;28;20048;-47
2023/10/22 10:24:26;;;;;;;4.10;2.42;;;25.00;99.90;;;;;;5054802;28;20032;-47
2023/10/22 10:27:12;;;;;;;4.05;1.63;;;25.00;99.90;;;;;;5054906;28;20056;-47
2023/10/22 10:29:39;;;;;;;3.45;2.10;;;25.00;99.90;;;;;;5054615;28;20036;-47
2023/10/22 10:32:13;;;;;;;4.93;2.03;;;25.00;99.90;;;;;;5054721;28;20125;-47
2023/10/22 10:34:49;;;;;;;2.47;1.83;;;25.00;99.90;;;;;;5054735;28;20066;-47
2023/10/22 10:37:17;;;;;;;3.90;1.90;;;25.00;99.90;;;;;;5036670;28;20384;-46
2023/10/22 10:39:44;;;;;;;;;;;25.00;99.90;;;;;;5054213;28;20460;-46
2023/10/22 10:42:11;;;;;;;3.47;2.08;;;25.00;99.90;;;;;;5054579;28;19973;-47
2023/10/22 10:44:57;;;;;;;2.38;1.58;;;25.00;99.90;;;;;;5054632;28;20512;-47
2023/10/22 10:47:32;;;;;;;2.85;1.92;;;25.00;99.90;;;;;;5054628;28;20029;-47
2023/10/22 10:49:59;;;;;;;2.45;1.92;;;25.00;99.90;;;;;;5054795;28;20033;-47
2023/10/22 10:52:26;;;;;;;3.88;2.10;;;25.00;99.90;;;;;;5054368;28;20033;-47
2023/10/22 10:55:09;;;;;;;4.05;2.45;;;25.00;99.90;;;;;;5036499;28;20116;-47
2023/10/22 10:57:37;;;;;;;2.55;1.83;;;25.00;99.90;;;;;;5054440;28;20052;-47
2023/10/22 11:00:09;;;;;;;3.42;2.10;;;25.00;99.90;;;;;;5054369;28;20017;-48
2023/10/22 11:02:52;;;;;;;3.75;2.30;;;25.00;99.90;;;;;;5054124;28;20049;-48
2023/10/22 11:05:37;;;;;;;4.35;2.00;;;25.00;99.90;;;;;;5054124;28;20025;-47
2023/10/22 11:08:05;;;;;;;2.38;1.92;;;25.00;99.90;;;;;;5054058;28;20504;-47
2023/10/22 11:10:31;;;;;;;4.57;2.33;;;25.00;99.90;;;;;;5054022;28;20037;-47
2023/10/22 11:13:02;;;;;;;2.08;1.45;;;25.00;99.90;;;;;;5053967;28;20033;-48
2023/10/22 11:15:36;;;;;;;2.50;1.60;;;25.00;99.90;;;;;;5019657;28;20108;-48
2023/10/22 11:18:04;;;;;;;4.13;1.80;;;25.00;99.90;;;;;;5054134;28;20075;-46
2023/10/22 11:20:30;;;;;;;;;;;25.00;99.90;;;;;;5054532;28;20013;-46
2023/10/22 11:22:57;;;;;;;3.63;1.90;;;25.00;99.90;;;;;;5053794;28;20377;-46
2023/10/22 11:25:23;;;;;;;3.85;2.08;;;25.00;99.90;;;;;;5036267;28;20105;-46
2023/10/22 11:27:49;;;;;;;4.32;2.30;;;25.00;99.90;;;;;;5053630;28;20111;-47
2023/10/22 11:30:34;;;;;;;3.60;1.88;;;25.00;99.90;;;;;;5053767;28;20159;-47
2023/10/22 11:33:00;;;;;;;4.15;1.63;;;25.10;99.90;;;;;;5053975;28;20564;-46
2023/10/22 11:35:32;;;;;;;4.15;1.95;;;25.10;99.90;;;;;;5053590;28;20052;-47
2023/10/22 11:37:58;;;;;;;3.28;1.92;;;25.10;99.90;;;;;;5053623;28;20029;-46
2023/10/22 11:40:34;;;;;;;5.45;2.05;;;25.20;99.90;;;;;;5053414;28;20092;-46
2023/10/22 11:43:04;;;;;;;3.53;1.90;;;25.20;99.90;;;;;;5035550;28;20028;-46
2023/10/22 11:45:34;;;;;;;3.35;1.60;;;25.20;99.90;;;;;;5053632;28;20013;-46
2023/10/22 11:48:17;;;;;;;3.45;1.73;;;25.20;99.90;;;;;;5053284;28;20075;-46
2023/10/22 11:50:48;;;;;;;2.97;1.60;;;25.20;99.90;;;;;;5053240;28;20021;-47
2023/10/22 11:53:14;;;;;;;3.47;1.67;;;25.30;99.90;;;;;;5053404;28;20397;-46
2023/10/22 11:55:40;;;;;;;3.13;1.85;;;25.30;99.90;;;;;;5053201;28;20063;-46
2023/10/22 11:58:25;;;;;;;3.58;1.92;;;25.30;99.90;;;;;;5035248;28;20029;-46
2023/10/22 12:00:51;;;;;;;2.47;1.67;;;25.30;99.90;;;;;;5053006;28;20044;-47
2023/10/22 12:03:18;;;;;;;3.92;1.80;;;25.30;99.90;;;;;;5053236;28;20517;-46
2023/10/22 12:05:45;;;;;;;3.40;1.85;;;25.30;99.90;;;;;;5053089;28;20017;-47
2023/10/22 12:08:11;;;;;;;3.78;1.65;;;25.40;99.90;;;;;;5052997;28;20032;-46
2023/10/22 12:10:37;;;;;;;2.57;1.50;;;25.40;99.90;;;;;;5052818;28;20017;-47
2023/10/22 12:13:06;;;;;;;3.00;1.75;;;25.40;99.90;;;;;;5053073;28;20473;-47
2023/10/22 12:15:32;;;;;;;3.38;1.70;;;25.40;99.90;;;;;;5053353;28;20377;-46
2023/10/22 12:17:59;;;;;;;2.30;1.73;;;25.40;99.90;;;;;;5052832;28;20029;-46
2023/10/22 12:20:25;;;;;;;2.65;1.58;;;25.40;99.90;;;;;;5052753;28;20032;-46
2023/10/22 12:22:51;;;;;;;2.88;2.00;;;25.40;99.90;;;;;;5052758;28;20043;-46
2023/10/22 12:25:17;;;;;;;2.17;1.70;;;25.50;99.90;;;;;;5052721;28;20529;-47
2023/10/22 12:27:43;;;;;;;5.05;2.13;;;25.50;99.90;;;;;;5052694;28;20064;-47
2023/10/22 12:30:09;;;;;;;2.53;1.67;;;25.50;99.90;;;;;;5052621;28;20100;-46
2023/10/22 12:32:35;;;;;;;3.13;2.28;;;25.60;99.90;;;;;;5052680;28;20074;-47
2023/10/22 12:35:01;;;;;;;1.83;1.42;;;25.60;99.90;;;;;;5052432;28;20017;-47
2023/10/22 12:37:27;;;;;;;2.60;1.70;;;25.70;99.90;;;;;;5052537;28;20086;-49
2023/10/22 12:39:53;;;;;;;2.92;1.58;;;25.70;99.90;;;;;;5052567;28;20021;-47
2023/10/22 12:42:18;;;;;;;3.28;1.50;;;25.70;99.90;;;;;;5052471;28;20548;-47
2023/10/22 12:44:45;;;;;;;3.10;1.67;;;25.80;99.90;;;;;;5034457;28;20067;-47
2023/10/22 12:47:15;;;;;;;3.80;1.88;;;25.80;99.90;;;;;;5052304;28;20086;-47
2023/10/22 12:49:44;;;;;;;3.83;1.70;;;25.80;99.90;;;;;;5052278;28;20060;-47